Miramichi, New Brunswick

10:28 PM ADT on September 03, 2015 (GMT -0300)
Bathurst | | Change Station
CLOSE
Current Station
Airport
Location: Bathurst Airport Aviation,
Elevation: 194 ft
Nearby Weather Stations

Elev 194 ft 47.63 °N, 65.75 °W | Updated 28 minutes ago

Partly Cloudy
Partly Cloudy
55 °F
Feels Like 55 °F
N
5
Wind Variable Wind from WNW

Today
High -- | Low -- °F
--% Chance of Precip.
Yesterday
High -- | Low -- °F
Precip. -- in
6:43 AM 7:58 PM
Waning Gibbous, 65% visible
Pressure 30.00 in
Visibility 15.0 miles
Clouds Few 24000 ft
Dew Point 45 °F
Humidity 67%
Rainfall 0.00 in
Snow Depth Not available.
UV 0 out of 12
Pollen Not available.
Air Quality Not available.
Flu Activity Not available.
METAR CZBF 040100Z 29004KT 15SM FEW240 13/07 A3000 RMK CI1 CI TR SLP159
Pressure 30.00 in
Visibility 15.0 miles
Clouds Few 24000 ft
Dew Point 45 °F
Humidity 67%
Rainfall 0.00 in
Snow Depth Not available.
UV 0 out of 12
Pollen Not available.
Air Quality Not available.
Flu Activity Not available.
METAR CZBF 040100Z 29004KT 15SM FEW240 13/07 A3000 RMK CI1 CI TR SLP159

10-Day Weather Forecast

×

Almanac

Astronomy

Sep. 03, 2015 Rise Set
Actual Time
Civil Twilight
Nautical Twilight
Astronomical Twilight
Moon
Length of Visible Light
Length of Day
Tomorrow will be .
, % of the Moon is Illuminated

Today's Extremes

Country Highs Country Lows

Community

WunderPhotos

Upload Photos

1,852,081 photos uploaded!

WunderBlogs® & News

Nearby

Air Quality

  Air Quality AQ Index Pollutant
Not available.

Snow Depth

Station Depth Elevation

Earthquake Activity

City Distance Mag. Time & Date
Minimum magnitude displayed is 2.5.

Coastal Water Temperatures

Place Temperature

Stations

Nearby Weather Stations

Station Location Temp. Windchill Dew Point Humidity Wind Precip. Elev Updated Type